Time;durP1;ratioP1;P1;durP2;ratioP2;P2;SDS_P1;SDS_P2;PMS_P1;PMS_P2;Temp;Humidity;BMP_temperature;BMP_pressure;BME280_temperature;BME280_humidity;BME280_pressure;Samples;Min_cycle;Max_cycle;Signal;HPM_P1;HPM_P2
2023/07/10 00:00:26;;;;;;;7.70;2.70;;;;;;;19.33;98.65;101967.78;5052825;28;20075;-71
2023/07/10 00:02:52;;;;;;;5.90;2.72;;;;;;;19.29;98.06;101971.47;5056706;28;20527;-70
2023/07/10 00:05:19;;;;;;;5.82;2.83;;;;;;;19.31;98.89;101969.63;5053703;28;20032;-71
2023/07/10 00:07:45;;;;;;;5.40;3.13;;;;;;;19.29;98.97;101966.19;5053856;28;20021;-70
2023/07/10 00:10:13;;;;;;;5.68;2.58;;;;;;;19.34;99.60;101979.22;5059121;28;20024;-70
2023/07/10 00:12:39;;;;;;;5.38;2.78;;;;;;;19.31;99.62;101976.69;5051591;28;20032;-71
2023/07/10 00:15:18;;;;;;;5.60;2.88;;;;;;;19.34;97.86;101969.50;5052560;28;20029;-71
2023/07/10 00:17:45;;;;;;;7.90;2.60;;;;;;;19.25;96.89;101980.44;5045160;28;20025;-70
2023/07/10 00:20:16;;;;;;;4.82;2.63;;;;;;;19.24;100.00;101988.44;5052562;28;20021;-70
2023/07/10 00:22:41;;;;;;;6.50;2.80;;;;;;;19.05;100.00;101989.19;5056598;28;20033;-71
2023/07/10 00:25:10;;;;;;;6.45;2.65;;;;;;;18.79;100.00;101984.97;5051643;28;20024;-70
2023/07/10 00:27:36;;;;;;;7.22;3.20;;;;;;;18.55;100.00;101977.97;5052049;28;20025;-70
2023/07/10 00:30:02;;;;;;;9.57;3.42;;;;;;;18.22;100.00;101966.00;5052744;28;20052;-70
2023/07/10 00:32:27;;;;;;;5.43;3.10;;;;;;;17.98;100.00;101969.53;5051512;28;20539;-70
2023/07/10 00:34:52;;;;;;;6.32;2.80;;;;;;;17.75;100.00;101958.00;5047207;28;20047;-70
2023/07/10 00:37:18;;;;;;;4.47;2.75;;;;;;;17.63;100.00;101966.38;5052891;28;20039;-70
2023/07/10 00:39:43;;;;;;;8.73;3.30;;;;;;;17.56;100.00;101964.88;5050002;28;20530;-71
2023/07/10 00:42:20;;;;;;;8.85;3.03;;;;;;;17.62;100.00;101979.59;5052471;28;20054;-70
2023/07/10 00:44:51;;;;;;;5.45;3.03;;;;;;;17.65;100.00;101982.97;5052054;28;20473;-71
2023/07/10 00:47:26;;;;;;;7.97;3.28;;;;;;;17.74;100.00;101984.44;5051996;28;20033;-70
2023/07/10 00:50:16;;;;;;;5.35;3.30;;;;;;;17.86;100.00;101985.84;5051847;28;20021;-71
2023/07/10 00:52:45;;;;;;;6.72;2.88;;;;;;;17.91;100.00;101979.47;5049871;28;20032;-70
2023/07/10 00:55:36;;;;;;;6.57;2.95;;;;;;;18.05;100.00;101978.97;5057341;28;20053;-71
2023/07/10 00:58:22;;;;;;;12.32;3.28;;;;;;;18.06;100.00;101974.56;5045140;28;20404;-70
2023/07/10 01:01:09;;;;;;;6.50;3.20;;;;;;;18.11;100.00;101975.22;5052128;28;20032;-71
2023/07/10 01:03:37;;;;;;;7.90;2.80;;;;;;;18.07;100.00;101977.13;5050925;28;20040;-71
2023/07/10 01:06:14;;;;;;;7.90;3.00;;;;;;;18.12;100.00;101977.84;5052475;28;20021;-70
2023/07/10 01:08:43;;;;;;;3.83;2.78;;;;;;;18.13;100.00;101976.03;5050473;28;20053;-70
2023/07/10 01:11:08;;;;;;;7.18;3.15;;;;;;;18.21;100.00;101971.31;5050750;28;20116;-70
2023/07/10 01:13:39;;;;;;;5.05;3.25;;;;;;;18.15;100.00;101967.16;5051060;28;20021;-70
2023/07/10 01:16:05;;;;;;;6.03;2.95;;;;;;;18.16;100.00;101979.44;5051891;28;20041;-70
2023/07/10 01:18:31;;;;;;;4.43;2.63;;;;;;;18.10;100.00;101984.94;5050118;28;20049;-71
2023/07/10 01:21:19;;;;;;;5.75;3.28;;;;;;;18.17;100.00;101975.88;5056681;28;20119;-70
2023/07/10 01:23:44;;;;;;;4.43;2.33;;;;;;;18.10;100.00;101977.00;5044269;28;20033;-70
2023/07/10 01:26:10;;;;;;;7.55;2.97;;;;;;;18.03;100.00;101975.53;5050867;28;20044;-70
2023/07/10 01:28:35;;;;;;;5.32;2.60;;;;;;;17.99;100.00;101956.31;5051104;28;20087;-70
2023/07/10 01:31:10;;;;;;;5.97;2.60;;;;;;;18.07;100.00;101971.00;5051542;28;20080;-70
2023/07/10 01:33:40;;;;;;;5.57;2.75;;;;;;;18.03;100.00;101967.59;5051648;28;20040;-70
2023/07/10 01:36:08;;;;;;;5.13;3.03;;;;;;;18.05;100.00;101962.25;5053336;28;20108;-70
2023/07/10 01:38:46;;;;;;;4.85;2.78;;;;;;;18.03;100.00;101962.34;5048707;28;20025;-71
2023/07/10 01:41:29;;;;;;;7.85;3.03;;;;;;;17.95;100.00;101959.97;5051086;28;20020;-70
2023/07/10 01:43:54;;;;;;;;;;;;;;;18.04;100.00;101965.81;5052259;28;20037;-70
2023/07/10 01:46:25;;;;;;;5.38;3.00;;;;;;;17.90;100.00;101969.81;5052603;28;19962;-70
2023/07/10 01:48:57;;;;;;;5.90;2.60;;;;;;;17.89;100.00;101980.44;5055136;28;20067;-70
2023/07/10 01:51:23;;;;;;;6.60;2.78;;;;;;;17.91;100.00;101975.97;5052241;28;20510;-71
2023/07/10 01:53:49;;;;;;;5.80;3.08;;;;;;;17.89;100.00;101988.38;5055220;28;20268;-70
2023/07/10 01:56:17;;;;;;;6.75;3.40;;;;;;;17.84;100.00;101982.38;5049113;28;20025;-70
2023/07/10 01:58:42;;;;;;;8.75;3.15;;;;;;;17.86;100.00;101970.88;5055018;28;20036;-71
2023/07/10 02:01:08;;;;;;;5.75;2.90;;;;;;;17.87;100.00;101971.72;5055753;28;20025;-70
2023/07/10 02:03:34;;;;;;;7.00;3.28;;;;;;;17.73;100.00;101978.31;5054533;28;20039;-71
2023/07/10 02:05:59;;;;;;;5.50;2.78;;;;;;;17.64;100.00;101976.00;5058228;28;20041;-70
2023/07/10 02:08:25;;;;;;;6.18;2.80;;;;;;;17.55;100.00;101973.69;5059719;28;20021;-70
2023/07/10 02:10:50;;;;;;;5.95;2.83;;;;;;;17.46;100.00;101979.25;5053854;28;20033;-70
2023/07/10 02:13:16;;;;;;;4.43;2.80;;;;;;;17.36;100.00;101973.44;5054638;28;20082;-70
2023/07/10 02:15:41;;;;;;;7.50;3.10;;;;;;;17.32;100.00;101982.38;5055322;28;20646;-70
2023/07/10 02:18:06;;;;;;;7.88;3.10;;;;;;;17.24;100.00;101976.50;5058462;28;20063;-70
2023/07/10 02:20:32;;;;;;;5.45;2.95;;;;;;;17.26;100.00;101983.44;5059212;28;20469;-70
2023/07/10 02:22:57;;;;;;;7.38;3.08;;;;;;;17.28;100.00;101988.66;5062815;28;20665;-70
2023/07/10 02:25:23;;;;;;;9.43;3.67;;;;;;;17.25;100.00;101994.88;5057422;28;20075;-71
2023/07/10 02:27:50;;;;;;;5.97;3.30;;;;;;;17.21;100.00;102006.44;5063070;28;20372;-70
2023/07/10 02:30:15;;;;;;;6.78;3.05;;;;;;;17.26;100.00;102001.00;5061655;28;20048;-71
2023/07/10 02:32:41;;;;;;;6.80;2.88;;;;;;;17.22;100.00;102010.81;5063004;28;20021;-70
2023/07/10 02:35:06;;;;;;;9.50;3.53;;;;;;;17.26;100.00;102014.19;5059824;28;20389;-70
2023/07/10 02:37:31;;;;;;;7.70;3.90;;;;;;;17.24;100.00;102002.88;5056071;28;20055;-71
2023/07/10 02:39:57;;;;;;;6.45;4.05;;;;;;;17.15;100.00;101989.97;5055164;28;20052;-70
2023/07/10 02:42:23;;;;;;;7.18;4.00;;;;;;;17.16;100.00;102002.22;5060424;28;20492;-71
2023/07/10 02:44:48;;;;;;;7.80;4.18;;;;;;;17.09;100.00;102006.84;5058250;28;20107;-70
2023/07/10 02:47:14;;;;;;;8.32;5.25;;;;;;;17.03;100.00;102002.63;5061407;28;20104;-70
2023/07/10 02:49:39;;;;;;;8.23;5.82;;;;;;;16.96;100.00;101987.06;5062190;28;20424;-70
2023/07/10 02:52:05;;;;;;;10.32;5.88;;;;;;;16.99;100.00;101993.09;5063176;28;20032;-70
2023/07/10 02:54:31;;;;;;;10.30;6.18;;;;;;;17.00;100.00;101994.84;5053941;28;20025;-70
2023/07/10 02:56:56;;;;;;;9.18;6.30;;;;;;;16.99;100.00;102002.78;5059459;28;20021;-70
2023/07/10 02:59:26;;;;;;;10.63;6.93;;;;;;;16.95;100.00;101999.38;5062006;28;20054;-70
2023/07/10 03:01:52;;;;;;;9.45;6.78;;;;;;;17.02;100.00;102015.84;5062949;28;20345;-70
2023/07/10 03:04:17;;;;;;;12.73;7.57;;;;;;;16.94;100.00;102013.47;5056447;28;20032;-70
2023/07/10 03:06:42;;;;;;;11.23;7.68;;;;;;;16.91;100.00;102013.56;5061254;28;20053;-70
2023/07/10 03:09:08;;;;;;;10.77;8.25;;;;;;;16.90;100.00;102017.09;5062471;28;20030;-70
2023/07/10 03:11:33;;;;;;;11.63;7.75;;;;;;;16.84;100.00;102006.78;5059745;28;20441;-70
2023/07/10 03:14:01;;;;;;;11.27;8.45;;;;;;;16.82;100.00;102014.72;5058612;28;20033;-70
2023/07/10 03:16:26;;;;;;;12.13;9.15;;;;;;;16.80;100.00;102015.66;5057171;28;20086;-70
2023/07/10 03:18:52;;;;;;;11.40;8.35;;;;;;;16.81;100.00;102018.25;5061201;28;20033;-70
2023/07/10 03:21:17;;;;;;;13.23;8.90;;;;;;;16.75;100.00;102021.06;5057056;28;20025;-71
2023/07/10 03:23:42;;;;;;;12.75;8.70;;;;;;;16.79;100.00;102032.38;5058887;28;20060;-71
2023/07/10 03:26:08;;;;;;;15.23;8.98;;;;;;;16.76;100.00;102035.97;5056981;28;20025;-70
2023/07/10 03:28:35;;;;;;;14.88;9.55;;;;;;;16.62;100.00;102024.97;5059116;28;20037;-70
2023/07/10 03:31:01;;;;;;;14.20;8.88;;;;;;;16.65;100.00;102037.19;5054224;28;20041;-70
2023/07/10 03:33:26;;;;;;;13.85;9.40;;;;;;;16.66;100.00;102034.47;5055226;28;20475;-71
2023/07/10 03:35:59;;;;;;;14.25;9.50;;;;;;;16.69;100.00;102036.16;5057505;28;20119;-71
2023/07/10 03:38:24;;;;;;;13.85;9.38;;;;;;;16.57;100.00;102030.34;5055218;28;20024;-71
2023/07/10 03:40:51;;;;;;;10.85;9.15;;;;;;;16.58;100.00;102034.72;5055547;28;20036;-70
2023/07/10 03:43:16;;;;;;;12.75;9.85;;;;;;;16.52;100.00;102036.66;5061040;28;20027;-70
2023/07/10 03:45:41;;;;;;;10.82;8.27;;;;;;;16.48;100.00;102041.16;5057402;28;20032;-70
2023/07/10 03:48:07;;;;;;;16.15;8.63;;;;;;;16.44;100.00;102039.50;5057893;28;20109;-70
2023/07/10 03:50:34;;;;;;;13.27;9.07;;;;;;;16.42;100.00;102038.72;5058947;28;20060;-70
2023/07/10 03:52:59;;;;;;;13.02;9.27;;;;;;;16.40;100.00;102035.25;5064481;28;20039;-71
2023/07/10 03:55:25;;;;;;;13.77;8.95;;;;;;;16.38;100.00;102040.56;5058283;28;20033;-70
2023/07/10 03:57:50;;;;;;;12.98;9.02;;;;;;;16.37;100.00;102053.75;5059711;28;20401;-70
2023/07/10 04:00:15;;;;;;;11.13;8.50;;;;;;;16.31;100.00;102053.91;5058833;28;20032;-71
2023/07/10 04:02:41;;;;;;;14.38;8.77;;;;;;;16.23;100.00;102053.28;5060506;28;20074;-70
2023/07/10 04:05:06;;;;;;;13.60;9.45;;;;;;;16.28;100.00;102067.16;5055604;28;20115;-70
2023/07/10 04:07:31;;;;;;;12.98;8.80;;;;;;;16.28;100.00;102070.66;5065226;28;20500;-70
2023/07/10 04:09:57;;;;;;;13.57;9.32;;;;;;;16.29;100.00;102063.66;5056587;28;20062;-70
2023/07/10 04:12:22;;;;;;;13.40;8.95;;;;;;;16.29;100.00;102068.91;5053108;28;20060;-71
2023/07/10 04:14:47;;;;;;;12.25;9.80;;;;;;;16.32;100.00;102071.47;5056572;28;20029;-71
2023/07/10 04:17:14;;;;;;;14.82;10.27;;;;;;;16.32;100.00;102079.34;5063338;28;20040;-70
2023/07/10 04:19:40;;;;;;;16.15;10.73;;;;;;;16.36;100.00;102071.31;5054535;28;20031;-70
2023/07/10 04:22:05;;;;;;;16.17;11.10;;;;;;;16.45;100.00;102066.69;5059319;28;20056;-70
2023/07/10 04:24:31;;;;;;;12.30;9.63;;;;;;;16.53;100.00;102059.44;5055381;28;20071;-70
2023/07/10 04:26:56;;;;;;;13.15;10.43;;;;;;;16.62;100.00;102064.44;5061173;28;20029;-70
2023/07/10 04:29:22;;;;;;;17.38;11.13;;;;;;;16.73;100.00;102066.75;5058837;28;20061;-70
2023/07/10 04:31:47;;;;;;;17.23;11.60;;;;;;;16.81;100.00;102056.91;5056537;28;20036;-70
2023/07/10 04:34:13;;;;;;;15.38;11.35;;;;;;;16.92;100.00;102057.44;5059492;28;20046;-71
2023/07/10 04:36:38;;;;;;;15.50;11.02;;;;;;;16.98;100.00;102051.13;5053357;28;20492;-70
2023/07/10 04:39:03;;;;;;;20.02;12.10;;;;;;;17.08;100.00;102061.31;5056855;28;20102;-71
2023/07/10 04:41:29;;;;;;;16.83;11.40;;;;;;;17.09;100.00;102060.38;5056612;28;20028;-71
2023/07/10 04:43:54;;;;;;;19.98;11.68;;;;;;;17.12;100.00;102069.13;5051460;28;20354;-71
2023/07/10 04:46:21;;;;;;;13.48;11.15;;;;;;;17.17;100.00;102070.72;5057751;28;20025;-71
2023/07/10 04:48:46;;;;;;;15.63;11.60;;;;;;;17.24;100.00;102066.09;5054697;28;20025;-71
2023/07/10 04:51:13;;;;;;;16.23;10.48;;;;;;;17.27;100.00;102064.22;5065352;28;20424;-71
2023/07/10 04:53:38;;;;;;;14.13;11.27;;;;;;;17.26;100.00;102065.13;5058810;28;20032;-71
2023/07/10 04:56:06;;;;;;;14.05;10.88;;;;;;;17.20;100.00;102067.09;5057967;28;20388;-71
2023/07/10 04:58:54;;;;;;;15.68;11.98;;;;;;;17.20;100.00;102075.00;5060028;28;20021;-71
2023/07/10 05:01:26;;;;;;;14.85;11.32;;;;;;;17.14;100.00;102077.84;5054466;28;20032;-71
2023/07/10 05:03:52;;;;;;;13.88;11.05;;;;;;;17.13;100.00;102079.59;5058347;28;20020;-70
2023/07/10 05:06:18;;;;;;;14.18;11.07;;;;;;;17.12;100.00;102085.78;5056575;28;20078;-70
2023/07/10 05:08:44;;;;;;;15.45;11.43;;;;;;;17.16;100.00;102087.41;5057920;28;20513;-70
2023/07/10 05:11:10;;;;;;;16.25;10.93;;;;;;;17.16;100.00;102087.41;5061593;28;20534;-71
2023/07/10 05:13:35;;;;;;;14.65;11.57;;;;;;;17.05;100.00;102079.84;5051962;28;20029;-70
2023/07/10 05:16:01;;;;;;;18.58;11.57;;;;;;;17.22;100.00;102083.72;5060143;28;20447;-70
2023/07/10 05:18:27;;;;;;;16.08;10.73;;;;;;;17.28;100.00;102091.44;5053616;28;20037;-71
2023/07/10 05:20:53;;;;;;;16.25;10.77;;;;;;;17.31;100.00;102092.22;5057202;28;20028;-70
2023/07/10 05:23:19;;;;;;;16.33;11.70;;;;;;;17.37;100.00;102093.78;5059284;28;20475;-70
2023/07/10 05:26:19;;;;;;;12.80;10.48;;;;;;;17.44;100.00;102103.22;5059272;28;20130;-70
2023/07/10 05:28:44;;;;;;;15.60;10.52;;;;;;;17.42;100.00;102098.91;5052236;28;20049;-71
2023/07/10 05:31:11;;;;;;;20.05;11.35;;;;;;;17.49;100.00;102100.44;5054882;28;20041;-70
2023/07/10 05:33:37;;;;;;;12.43;10.68;;;;;;;17.57;100.00;102097.56;5060649;28;20025;-70
2023/07/10 05:36:06;;;;;;;14.23;9.68;;;;;;;17.64;100.00;102101.72;5056424;28;20033;-70
2023/07/10 05:38:33;;;;;;;14.50;9.60;;;;;;;17.65;100.00;102100.78;5052866;28;20035;-70
2023/07/10 05:40:59;;;;;;;12.82;9.15;;;;;;;17.74;100.00;102103.13;5053262;28;20021;-70
2023/07/10 05:43:25;;;;;;;13.15;9.02;;;;;;;17.76;100.00;102098.69;5051866;28;20032;-71
2023/07/10 05:45:53;;;;;;;13.85;9.00;;;;;;;17.81;100.00;102093.28;5058652;28;20021;-70
2023/07/10 05:48:18;;;;;;;14.52;8.95;;;;;;;17.81;100.00;102083.56;5060470;28;20431;-70
2023/07/10 05:50:45;;;;;;;12.63;8.95;;;;;;;17.84;100.00;102088.75;5054494;28;20036;-70
2023/07/10 05:53:14;;;;;;;13.15;8.55;;;;;;;17.94;100.00;102086.66;5061589;28;20025;-70
2023/07/10 05:55:46;;;;;;;10.43;7.93;;;;;;;17.95;100.00;102078.72;5048625;28;20029;-70
2023/07/10 05:58:13;;;;;;;11.95;7.57;;;;;;;18.04;100.00;102088.06;5057456;28;20647;-71
2023/07/10 06:00:40;;;;;;;13.52;7.70;;;;;;;18.10;100.00;102087.00;5051641;28;20033;-71
2023/07/10 06:03:05;;;;;;;11.15;7.22;;;;;;;18.09;100.00;102087.91;5060320;28;20032;-71
2023/07/10 06:05:31;;;;;;;13.50;7.50;;;;;;;18.16;100.00;102092.91;5053259;28;20047;-70
2023/07/10 06:07:56;;;;;;;10.40;7.03;;;;;;;18.21;100.00;102091.00;5055254;28;20699;-70
2023/07/10 06:10:21;;;;;;;11.80;6.53;;;;;;;18.27;100.00;102084.59;5049222;28;20071;-71
2023/07/10 06:12:47;;;;;;;9.45;6.30;;;;;;;18.29;100.00;102092.50;5055439;28;20025;-70
2023/07/10 06:15:12;;;;;;;10.95;5.57;;;;;;;18.37;100.00;102100.97;5052600;28;20024;-70
2023/07/10 06:17:37;;;;;;;9.30;5.20;;;;;;;18.41;100.00;102100.81;5050154;28;20377;-71
2023/07/10 06:20:03;;;;;;;7.65;4.75;;;;;;;18.42;100.00;102094.63;5054751;28;20472;-70
2023/07/10 06:22:28;;;;;;;12.45;4.85;;;;;;;18.51;100.00;102096.06;5058801;28;20384;-70
2023/07/10 06:24:54;;;;;;;8.73;5.28;;;;;;;18.50;100.00;102091.69;5053134;28;20488;-70
2023/07/10 06:27:19;;;;;;;10.38;4.88;;;;;;;18.58;100.00;102110.78;5062184;28;20033;-70
2023/07/10 06:29:44;;;;;;;10.00;4.78;;;;;;;18.66;100.00;102113.13;5052531;28;20121;-70
2023/07/10 06:32:10;;;;;;;11.60;4.90;;;;;;;18.68;100.00;102109.50;5056973;28;20067;-70
2023/07/10 06:34:35;;;;;;;7.88;4.13;;;;;;;18.71;100.00;102106.75;5061978;28;20456;-69
2023/07/10 06:37:00;;;;;;;7.22;4.50;;;;;;;18.77;100.00;102120.66;5053785;28;20051;-68
2023/07/10 06:39:27;;;;;;;8.32;4.65;;;;;;;18.79;100.00;102122.34;5061991;28;20448;-69
2023/07/10 06:41:53;;;;;;;10.57;4.90;;;;;;;18.84;100.00;102116.91;5055765;28;20032;-71
2023/07/10 06:44:19;;;;;;;8.13;4.45;;;;;;;18.85;100.00;102119.47;5064578;28;20040;-71
2023/07/10 06:46:44;;;;;;;12.68;4.55;;;;;;;18.84;100.00;102114.25;5053393;28;20369;-71
2023/07/10 06:49:09;;;;;;;11.10;4.57;;;;;;;18.98;100.00;102119.00;5055670;28;20676;-70
2023/07/10 06:51:37;;;;;;;9.48;4.85;;;;;;;19.03;100.00;102117.91;5060568;28;20479;-71
2023/07/10 06:54:03;;;;;;;6.75;3.97;;;;;;;19.04;100.00;102113.50;5056978;28;20060;-71
2023/07/10 06:56:29;;;;;;;10.27;4.68;;;;;;;19.12;100.00;102117.53;5059275;28;20106;-71
2023/07/10 06:58:54;;;;;;;7.93;3.85;;;;;;;19.21;100.00;102126.91;5067086;28;20491;-70
2023/07/10 07:01:19;;;;;;;8.95;3.40;;;;;;;19.29;95.86;102127.47;5061983;28;20028;-71
2023/07/10 07:03:45;;;;;;;10.65;4.18;;;;;;;19.33;95.55;102121.13;5050965;28;20099;-70
2023/07/10 07:06:10;;;;;;;6.95;3.83;;;;;;;19.43;95.73;102124.28;5058040;28;20071;-71
2023/07/10 07:08:36;;;;;;;6.93;3.30;;;;;;;19.45;97.77;102109.19;5056102;28;20031;-71
2023/07/10 07:11:01;;;;;;;8.48;3.53;;;;;;;19.52;95.04;102109.78;5056578;28;20024;-70
2023/07/10 07:13:26;;;;;;;11.70;3.38;;;;;;;19.58;97.00;102120.97;5059882;28;20017;-70
2023/07/10 07:15:54;;;;;;;7.43;3.28;;;;;;;19.67;96.56;102124.22;5052080;28;20376;-71
2023/07/10 07:18:21;;;;;;;6.72;3.10;;;;;;;19.72;93.21;102123.13;5052354;28;20028;-71
2023/07/10 07:20:47;;;;;;;7.82;3.40;;;;;;;19.74;94.18;102126.53;5051696;28;20017;-70
2023/07/10 07:23:13;;;;;;;10.00;3.53;;;;;;;19.80;89.69;102134.22;5054372;28;20058;-71
2023/07/10 07:25:40;;;;;;;10.35;3.58;;;;;;;19.80;91.96;102122.78;5058784;28;20119;-71
2023/07/10 07:28:05;;;;;;;12.88;4.18;;;;;;;19.87;91.33;102130.38;5060477;28;20090;-72
2023/07/10 07:30:31;;;;;;;9.13;3.78;;;;;;;19.93;92.34;102136.38;5055520;28;20477;-71
2023/07/10 07:32:57;;;;;;;12.20;4.15;;;;;;;20.00;89.42;102143.13;5053379;28;20040;-71
2023/07/10 07:35:22;;;;;;;9.27;4.00;;;;;;;20.04;91.94;102152.63;5051896;28;20033;-71
2023/07/10 07:37:48;;;;;;;9.68;3.55;;;;;;;20.07;89.26;102147.22;5042872;28;20061;-70
2023/07/10 07:40:16;;;;;;;6.75;4.07;;;;;;;20.11;89.91;102147.03;5059105;28;20053;-71
2023/07/10 07:42:42;;;;;;;12.75;4.80;;;;;;;20.19;90.38;102146.69;5055117;28;20021;-71
2023/07/10 07:45:08;;;;;;;11.75;4.70;;;;;;;20.26;88.22;102140.19;5057519;28;20029;-71
2023/07/10 07:47:34;;;;;;;8.57;4.45;;;;;;;20.37;88.99;102141.53;5062623;28;20160;-70
2023/07/10 07:49:59;;;;;;;11.13;4.00;;;;;;;20.44;91.49;102135.06;5059275;28;20082;-71
2023/07/10 07:52:24;;;;;;;11.75;4.70;;;;;;;20.50;90.27;102145.34;5061285;28;20025;-71
2023/07/10 07:54:51;;;;;;;6.60;3.50;;;;;;;20.55;90.22;102141.59;5060258;28;20024;-71
2023/07/10 07:57:16;;;;;;;6.80;3.80;;;;;;;20.68;89.48;102147.22;5060042;28;20100;-70
2023/07/10 07:59:41;;;;;;;6.47;3.30;;;;;;;20.69;85.41;102130.38;5058402;28;20064;-71
2023/07/10 08:02:08;;;;;;;7.90;3.38;;;;;;;20.71;81.51;102127.66;5062212;28;20032;-71
2023/07/10 08:04:34;;;;;;;6.65;3.40;;;;;;;20.76;81.09;102123.88;5054270;28;20036;-71
2023/07/10 08:06:59;;;;;;;7.88;3.58;;;;;;;20.78;81.53;102116.72;5061742;28;20094;-71
2023/07/10 08:09:24;;;;;;;9.20;3.65;;;;;;;20.86;78.95;102112.84;5054353;28;20079;-71
2023/07/10 08:11:50;;;;;;;8.15;2.83;;;;;;;20.88;77.79;102116.28;5063039;28;20036;-71
2023/07/10 08:14:15;;;;;;;9.30;2.75;;;;;;;20.99;78.68;102121.94;5054567;28;20029;-71
2023/07/10 08:16:40;;;;;;;7.43;2.75;;;;;;;21.09;78.99;102120.59;5058221;28;20108;-70
2023/07/10 08:19:06;;;;;;;5.55;2.72;;;;;;;21.18;74.81;102129.88;5053291;28;20020;-71
2023/07/10 08:21:31;;;;;;;9.90;2.90;;;;;;;21.26;74.92;102120.63;5055493;28;20028;-73
2023/07/10 08:23:56;;;;;;;8.98;3.03;;;;;;;21.39;77.67;102120.94;5060086;28;20056;-71
2023/07/10 08:26:22;;;;;;;7.28;2.50;;;;;;;21.39;73.29;102128.03;5056755;28;20052;-71
2023/07/10 08:28:47;;;;;;;7.90;2.67;;;;;;;21.38;71.83;102129.81;5060654;28;20038;-71
2023/07/10 08:31:12;;;;;;;7.45;3.08;;;;;;;21.42;75.52;102127.91;5058706;28;20048;-71
2023/07/10 08:33:38;;;;;;;9.27;2.97;;;;;;;21.50;70.57;102126.56;5055039;28;20082;-71
2023/07/10 08:36:06;;;;;;;9.00;3.22;;;;;;;21.59;73.82;102125.25;5063158;28;20072;-71
2023/07/10 08:38:33;;;;;;;9.27;2.75;;;;;;;21.68;70.72;102123.94;5055840;28;20112;-72
2023/07/10 08:41:01;;;;;;;6.88;2.67;;;;;;;21.76;71.70;102121.78;5056457;28;20032;-72
2023/07/10 08:43:38;;;;;;;7.78;2.95;;;;;;;21.84;73.05;102127.53;5057173;28;20025;-71
2023/07/10 08:46:08;;;;;;;7.68;2.78;;;;;;;21.91;71.46;102128.97;5050378;28;20029;-83
2023/07/10 08:48:58;;;;;;;7.97;2.75;;;;;;;22.11;73.57;102122.63;5048811;28;20029;-72
2023/07/10 08:51:32;;;;;;;5.80;2.75;;;;;;;22.22;71.50;102119.44;5054380;28;20104;-73
2023/07/10 08:54:10;;;;;;;11.05;3.20;;;;;;;22.28;70.90;102118.28;5052929;28;20139;-73
2023/07/10 08:56:42;;;;;;;6.60;2.70;;;;;;;22.28;65.86;102111.16;5061437;28;20036;-72
2023/07/10 08:59:38;;;;;;;6.10;3.10;;;;;;;22.43;67.97;102123.63;5054494;28;20037;-73
2023/07/10 09:02:15;;;;;;;7.05;2.42;;;;;;;22.59;69.44;102134.28;5058230;28;20035;-73
2023/07/10 09:04:42;;;;;;;9.70;2.45;;;;;;;22.60;66.14;102133.34;5054930;28;20383;-73
2023/07/10 09:07:09;;;;;;;6.13;2.28;;;;;;;22.64;61.24;102126.06;5054025;28;20099;-73
2023/07/10 09:09:45;;;;;;;7.22;2.53;;;;;;;22.65;61.01;102133.94;5050305;28;20484;-72
2023/07/10 09:12:27;;;;;;;5.80;2.70;;;;;;;22.73;63.86;102124.72;5051106;28;20063;-73
2023/07/10 09:14:58;;;;;;;7.95;2.80;;;;;;;22.84;64.31;102127.66;5046635;28;20544;-73
2023/07/10 09:17:51;;;;;;;6.10;2.00;;;;;;;22.90;60.68;102122.84;5053921;28;20031;-71
2023/07/10 09:20:20;;;;;;;6.18;2.10;;;;;;;22.88;59.57;102129.19;5053225;28;20059;-70
2023/07/10 09:22:52;;;;;;;5.38;2.10;;;;;;;22.88;62.60;102123.88;5051302;28;20028;-71
2023/07/10 09:25:20;;;;;;;7.13;2.03;;;;;;;23.05;64.62;102123.84;5056596;28;20029;-70
2023/07/10 09:27:46;;;;;;;6.40;2.33;;;;;;;23.16;58.88;102117.91;5052464;28;20021;-70
2023/07/10 09:30:26;;;;;;;4.72;2.33;;;;;;;23.33;60.61;102138.25;5055226;28;20045;-70
2023/07/10 09:33:00;;;;;;;7.43;2.10;;;;;;;23.25;59.26;102129.81;5061781;28;20032;-70
2023/07/10 09:35:25;;;;;;;6.82;2.28;;;;;;;23.46;60.06;102131.28;5053369;28;20387;-70
2023/07/10 09:37:51;;;;;;;8.75;2.67;;;;;;;23.59;59.13;102121.63;5062234;28;20025;-70
2023/07/10 09:40:31;;;;;;;4.70;2.28;;;;;;;23.78;58.68;102131.25;5053197;28;20037;-70
2023/07/10 09:43:02;;;;;;;7.00;2.30;;;;;;;23.81;58.30;102133.72;5061582;28;20120;-70
2023/07/10 09:45:32;;;;;;;5.22;2.40;;;;;;;23.74;55.39;102129.69;5055678;28;20476;-70
2023/07/10 09:47:58;;;;;;;7.80;2.30;;;;;;;23.88;56.60;102126.25;5058148;28;20040;-70
2023/07/10 09:50:24;;;;;;;8.43;2.50;;;;;;;24.08;58.41;102122.38;5052018;28;20118;-70
2023/07/10 09:52:54;;;;;;;9.70;2.20;;;;;;;24.22;55.40;102125.06;5059342;28;20400;-68
2023/07/10 09:55:19;;;;;;;7.47;2.10;;;;;;;24.40;51.50;102118.59;5054060;28;20477;-70
2023/07/10 09:57:57;;;;;;;7.45;2.28;;;;;;;24.75;52.34;102127.13;5052608;28;20032;-69
2023/07/10 10:00:23;;;;;;;3.78;2.05;;;;;;;24.97;54.44;102125.72;5049135;28;20024;-69
2023/07/10 10:03:01;;;;;;;6.25;1.92;;;;;;;25.30;58.41;102125.38;5053151;28;20032;-69
2023/07/10 10:05:27;;;;;;;6.38;2.35;;;;;;;25.35;53.50;102123.28;5051270;28;20515;-69
2023/07/10 10:08:01;;;;;;;10.57;2.28;;;;;;;25.27;51.75;102125.59;5061565;28;20029;-69
2023/07/10 10:10:37;;;;;;;5.65;2.20;;;;;;;25.29;50.50;102117.50;5057713;28;20472;-69
2023/07/10 10:13:15;;;;;;;6.35;2.10;;;;;;;25.28;51.85;102124.66;5059113;28;20029;-69
2023/07/10 10:15:51;;;;;;;6.43;2.17;;;;;;;25.29;52.39;102113.00;5051263;28;20028;-69
2023/07/10 10:18:29;;;;;;;6.55;2.30;;;;;;;25.20;52.06;102118.94;5053310;28;20036;-69
2023/07/10 10:20:55;;;;;;;7.65;2.08;;;;;;;25.02;51.22;102120.13;5058524;28;20063;-69
2023/07/10 10:23:30;;;;;;;8.73;2.60;;;;;;;25.12;52.35;102123.94;5063664;28;20380;-70
2023/07/10 10:26:08;;;;;;;8.80;2.47;;;;;;;25.26;51.60;102125.69;5050179;28;20033;-70
2023/07/10 10:29:01;;;;;;;6.47;2.30;;;;;;;25.53;50.20;102117.69;5058964;28;20116;-72
2023/07/10 10:31:35;;;;;;;6.40;2.30;;;;;;;25.33;49.34;102111.84;5055829;28;20135;-73
2023/07/10 10:34:39;;;;;;;8.55;2.35;;;;;;;25.28;50.40;102121.97;5057040;28;20135;-72
2023/07/10 10:37:32;;;;;;;6.40;2.30;;;;;;;25.58;48.23;102112.91;5038416;28;20396;-73
2023/07/10 10:40:14;;;;;;;5.47;2.30;;;;;;;25.74;46.41;102121.59;5060373;28;20053;-71
2023/07/10 10:42:50;;;;;;;6.43;2.30;;;;;;;26.25;46.08;102113.66;5059978;28;20484;-71
2023/07/10 10:45:37;;;;;;;8.77;2.65;;;;;;;26.50;47.45;102107.47;5053061;28;20424;-71
2023/07/10 10:48:10;;;;;;;7.90;2.05;;;;;;;26.45;44.10;102114.06;5055574;28;20039;-71
2023/07/10 10:50:56;;;;;;;4.85;2.10;;;;;;;26.59;44.71;102108.66;5058491;28;20037;-71
2023/07/10 10:53:37;;;;;;;5.50;2.30;;;;;;;26.87;46.69;102112.00;5054759;28;20053;-72
2023/07/10 10:56:19;;;;;;;10.15;2.95;;;;;;;26.55;44.11;102112.47;5054214;28;20566;-71
2023/07/10 10:59:09;;;;;;;5.18;2.33;;;;;;;25.97;46.96;102124.56;5056786;28;20036;-71
2023/07/10 11:02:13;;;;;;;5.68;2.13;;;;;;;25.67;50.65;102128.31;5056987;28;20041;-71
2023/07/10 11:04:43;;;;;;;8.00;2.47;;;;;;;25.98;46.82;102127.09;5037941;28;20048;-71
2023/07/10 11:07:12;;;;;;;7.80;2.47;;;;;;;25.89;46.31;102127.72;5058587;28;20033;-71
2023/07/10 11:09:56;;;;;;;7.18;2.70;;;;;;;25.76;48.49;102122.31;5057228;28;20024;-71
2023/07/10 11:12:25;;;;;;;;;;;;;;;26.09;47.23;102134.38;5062527;28;20032;-71
2023/07/10 11:14:55;;;;;;;8.88;2.50;;;;;;;26.29;47.93;102125.84;5057568;28;20360;-71
2023/07/10 11:17:22;;;;;;;7.13;2.70;;;;;;;26.67;47.38;102124.97;5062765;28;20032;-71
2023/07/10 11:19:48;;;;;;;7.28;2.55;;;;;;;26.71;45.07;102118.44;5053402;28;20040;-71
2023/07/10 11:22:26;;;;;;;11.30;2.70;;;;;;;26.68;47.48;102118.66;5065926;28;20476;-71
2023/07/10 11:24:52;;;;;;;8.70;2.22;;;;;;;26.59;47.52;102098.78;5050598;28;20052;-71